sensor_id;sensor_type;location;lat;lon;timestamp;P1;durP1;ratioP1;P2;durP2;ratioP2
80541;SDS011;69870;51.460;8.842;2023-05-14T00:00:34;17.98;;;8.80;;
80541;SDS011;69870;51.460;8.842;2023-05-14T00:03:01;17.77;;;8.70;;
80541;SDS011;69870;51.460;8.842;2023-05-14T00:05:28;16.20;;;9.27;;
80541;SDS011;69870;51.460;8.842;2023-05-14T00:07:54;19.35;;;9.27;;
80541;SDS011;69870;51.460;8.842;2023-05-14T00:10:21;14.57;;;8.68;;
80541;SDS011;69870;51.460;8.842;2023-05-14T00:12:47;15.18;;;8.20;;
80541;SDS011;69870;51.460;8.842;2023-05-14T00:15:14;13.57;;;8.40;;
80541;SDS011;69870;51.460;8.842;2023-05-14T00:17:42;15.20;;;8.77;;
80541;SDS011;69870;51.460;8.842;2023-05-14T00:20:09;14.85;;;8.75;;
80541;SDS011;69870;51.460;8.842;2023-05-14T00:22:36;18.38;;;8.65;;
80541;SDS011;69870;51.460;8.842;2023-05-14T00:25:03;15.38;;;8.65;;
80541;SDS011;69870;51.460;8.842;2023-05-14T00:27:31;11.65;;;8.05;;
80541;SDS011;69870;51.460;8.842;2023-05-14T00:29:58;16.45;;;8.77;;
80541;SDS011;69870;51.460;8.842;2023-05-14T00:32:24;17.27;;;8.82;;
80541;SDS011;69870;51.460;8.842;2023-05-14T00:34:52;15.20;;;8.45;;
80541;SDS011;69870;51.460;8.842;2023-05-14T00:37:19;10.13;;;7.97;;
80541;SDS011;69870;51.460;8.842;2023-05-14T00:39:46;13.95;;;9.13;;
80541;SDS011;69870;51.460;8.842;2023-05-14T00:42:12;13.93;;;10.25;;
80541;SDS011;69870;51.460;8.842;2023-05-14T00:44:39;13.95;;;8.43;;
80541;SDS011;69870;51.460;8.842;2023-05-14T00:47:06;13.20;;;8.43;;
80541;SDS011;69870;51.460;8.842;2023-05-14T00:49:33;23.40;;;9.45;;
80541;SDS011;69870;51.460;8.842;2023-05-14T00:52:02;12.65;;;8.32;;
80541;SDS011;69870;51.460;8.842;2023-05-14T00:54:29;15.10;;;8.25;;
80541;SDS011;69870;51.460;8.842;2023-05-14T00:56:55;16.05;;;8.52;;
80541;SDS011;69870;51.460;8.842;2023-05-14T00:59:22;12.98;;;8.35;;
80541;SDS011;69870;51.460;8.842;2023-05-14T01:01:49;14.02;;;9.35;;
80541;SDS011;69870;51.460;8.842;2023-05-14T01:04:15;17.20;;;9.20;;
80541;SDS011;69870;51.460;8.842;2023-05-14T01:06:44;13.40;;;10.38;;
80541;SDS011;69870;51.460;8.842;2023-05-14T01:09:25;20.83;;;9.88;;
80541;SDS011;69870;51.460;8.842;2023-05-14T01:11:59;12.23;;;8.63;;
80541;SDS011;69870;51.460;8.842;2023-05-14T01:14:33;13.38;;;8.23;;
80541;SDS011;69870;51.460;8.842;2023-05-14T01:17:08;16.75;;;9.05;;
80541;SDS011;69870;51.460;8.842;2023-05-14T01:19:38;15.80;;;8.07;;
80541;SDS011;69870;51.460;8.842;2023-05-14T01:22:06;20.73;;;10.43;;
80541;SDS011;69870;51.460;8.842;2023-05-14T01:24:33;16.48;;;9.20;;
80541;SDS011;69870;51.460;8.842;2023-05-14T01:27:00;15.60;;;10.45;;
80541;SDS011;69870;51.460;8.842;2023-05-14T01:29:32;17.95;;;10.25;;
80541;SDS011;69870;51.460;8.842;2023-05-14T01:32:00;16.10;;;10.38;;
80541;SDS011;69870;51.460;8.842;2023-05-14T01:34:31;14.90;;;9.18;;
80541;SDS011;69870;51.460;8.842;2023-05-14T01:37:00;15.35;;;10.38;;
80541;SDS011;69870;51.460;8.842;2023-05-14T01:39:29;17.55;;;9.95;;
80541;SDS011;69870;51.460;8.842;2023-05-14T01:41:57;13.45;;;10.00;;
80541;SDS011;69870;51.460;8.842;2023-05-14T01:44:26;15.88;;;9.55;;
80541;SDS011;69870;51.460;8.842;2023-05-14T01:46:53;13.70;;;9.52;;
80541;SDS011;69870;51.460;8.842;2023-05-14T01:49:19;13.52;;;10.07;;
80541;SDS011;69870;51.460;8.842;2023-05-14T01:51:46;12.60;;;9.32;;
80541;SDS011;69870;51.460;8.842;2023-05-14T01:54:13;17.00;;;9.98;;
80541;SDS011;69870;51.460;8.842;2023-05-14T01:56:41;12.27;;;8.88;;
80541;SDS011;69870;51.460;8.842;2023-05-14T01:59:07;15.50;;;9.80;;
80541;SDS011;69870;51.460;8.842;2023-05-14T02:01:34;16.73;;;10.13;;
80541;SDS011;69870;51.460;8.842;2023-05-14T02:04:01;18.55;;;9.18;;
80541;SDS011;69870;51.460;8.842;2023-05-14T02:06:28;16.88;;;9.85;;
80541;SDS011;69870;51.460;8.842;2023-05-14T02:08:55;14.30;;;9.52;;
80541;SDS011;69870;51.460;8.842;2023-05-14T02:11:22;16.83;;;10.70;;
80541;SDS011;69870;51.460;8.842;2023-05-14T02:13:50;17.58;;;10.63;;
80541;SDS011;69870;51.460;8.842;2023-05-14T02:16:16;17.67;;;9.88;;
80541;SDS011;69870;51.460;8.842;2023-05-14T02:18:43;17.85;;;10.32;;
80541;SDS011;69870;51.460;8.842;2023-05-14T02:21:10;17.95;;;10.65;;
80541;SDS011;69870;51.460;8.842;2023-05-14T02:23:37;19.23;;;10.00;;
80541;SDS011;69870;51.460;8.842;2023-05-14T02:26:03;17.92;;;9.90;;
80541;SDS011;69870;51.460;8.842;2023-05-14T02:28:30;11.27;;;8.57;;
80541;SDS011;69870;51.460;8.842;2023-05-14T02:30:58;20.45;;;9.25;;
80541;SDS011;69870;51.460;8.842;2023-05-14T02:33:25;14.52;;;10.27;;
80541;SDS011;69870;51.460;8.842;2023-05-14T02:35:52;20.35;;;9.73;;
80541;SDS011;69870;51.460;8.842;2023-05-14T02:38:18;19.02;;;11.85;;
80541;SDS011;69870;51.460;8.842;2023-05-14T02:40:45;14.43;;;10.25;;
80541;SDS011;69870;51.460;8.842;2023-05-14T02:43:12;17.35;;;10.68;;
80541;SDS011;69870;51.460;8.842;2023-05-14T02:45:38;27.08;;;10.57;;
80541;SDS011;69870;51.460;8.842;2023-05-14T02:48:06;16.30;;;11.40;;
80541;SDS011;69870;51.460;8.842;2023-05-14T02:50:33;23.08;;;11.25;;
80541;SDS011;69870;51.460;8.842;2023-05-14T02:52:59;17.42;;;9.43;;
80541;SDS011;69870;51.460;8.842;2023-05-14T02:55:26;18.48;;;10.40;;
80541;SDS011;69870;51.460;8.842;2023-05-14T02:57:52;18.13;;;10.90;;
80541;SDS011;69870;51.460;8.842;2023-05-14T03:00:19;17.10;;;10.75;;
80541;SDS011;69870;51.460;8.842;2023-05-14T03:02:46;20.00;;;11.13;;
80541;SDS011;69870;51.460;8.842;2023-05-14T03:05:14;18.80;;;11.95;;
80541;SDS011;69870;51.460;8.842;2023-05-14T03:07:41;17.33;;;12.57;;
80541;SDS011;69870;51.460;8.842;2023-05-14T03:10:08;18.60;;;10.68;;
80541;SDS011;69870;51.460;8.842;2023-05-14T03:12:35;18.67;;;11.00;;
80541;SDS011;69870;51.460;8.842;2023-05-14T03:15:02;16.88;;;10.73;;
80541;SDS011;69870;51.460;8.842;2023-05-14T03:17:29;15.27;;;10.20;;
80541;SDS011;69870;51.460;8.842;2023-05-14T03:19:55;21.15;;;11.55;;
80541;SDS011;69870;51.460;8.842;2023-05-14T03:22:23;15.38;;;9.75;;
80541;SDS011;69870;51.460;8.842;2023-05-14T03:24:50;18.35;;;11.25;;
80541;SDS011;69870;51.460;8.842;2023-05-14T03:27:17;19.17;;;12.27;;
80541;SDS011;69870;51.460;8.842;2023-05-14T03:29:43;21.05;;;12.18;;
80541;SDS011;69870;51.460;8.842;2023-05-14T03:32:10;14.68;;;11.23;;
80541;SDS011;69870;51.460;8.842;2023-05-14T03:34:36;14.90;;;11.50;;
80541;SDS011;69870;51.460;8.842;2023-05-14T03:37:03;21.75;;;13.20;;
80541;SDS011;69870;51.460;8.842;2023-05-14T03:39:31;15.77;;;11.68;;
80541;SDS011;69870;51.460;8.842;2023-05-14T03:41:58;21.25;;;11.65;;
80541;SDS011;69870;51.460;8.842;2023-05-14T03:44:25;16.70;;;10.77;;
80541;SDS011;69870;51.460;8.842;2023-05-14T03:46:52;19.92;;;11.80;;
80541;SDS011;69870;51.460;8.842;2023-05-14T03:49:19;16.73;;;11.77;;
80541;SDS011;69870;51.460;8.842;2023-05-14T03:51:45;15.77;;;10.15;;
80541;SDS011;69870;51.460;8.842;2023-05-14T03:54:12;17.27;;;10.30;;
80541;SDS011;69870;51.460;8.842;2023-05-14T03:56:40;19.02;;;10.90;;
80541;SDS011;69870;51.460;8.842;2023-05-14T03:59:07;15.57;;;10.40;;
80541;SDS011;69870;51.460;8.842;2023-05-14T04:01:34;15.02;;;10.23;;
80541;SDS011;69870;51.460;8.842;2023-05-14T04:04:00;19.73;;;11.55;;
80541;SDS011;69870;51.460;8.842;2023-05-14T04:06:27;18.35;;;10.75;;
80541;SDS011;69870;51.460;8.842;2023-05-14T04:08:53;16.90;;;10.15;;
80541;SDS011;69870;51.460;8.842;2023-05-14T04:11:20;15.60;;;11.15;;
80541;SDS011;69870;51.460;8.842;2023-05-14T04:13:49;16.92;;;10.75;;
80541;SDS011;69870;51.460;8.842;2023-05-14T04:16:15;17.30;;;11.57;;
80541;SDS011;69870;51.460;8.842;2023-05-14T04:18:42;25.83;;;10.90;;
80541;SDS011;69870;51.460;8.842;2023-05-14T04:21:09;17.17;;;12.10;;
80541;SDS011;69870;51.460;8.842;2023-05-14T04:23:36;17.42;;;12.02;;
80541;SDS011;69870;51.460;8.842;2023-05-14T04:26:02;20.77;;;11.35;;
80541;SDS011;69870;51.460;8.842;2023-05-14T04:28:29;19.00;;;11.77;;
80541;SDS011;69870;51.460;8.842;2023-05-14T04:30:57;19.65;;;11.60;;
80541;SDS011;69870;51.460;8.842;2023-05-14T04:33:24;20.67;;;11.20;;
80541;SDS011;69870;51.460;8.842;2023-05-14T04:35:51;19.27;;;11.52;;
80541;SDS011;69870;51.460;8.842;2023-05-14T04:38:18;17.90;;;10.73;;
80541;SDS011;69870;51.460;8.842;2023-05-14T04:40:44;14.88;;;10.80;;
80541;SDS011;69870;51.460;8.842;2023-05-14T04:43:11;19.48;;;12.55;;
80541;SDS011;69870;51.460;8.842;2023-05-14T04:45:37;17.85;;;10.95;;
80541;SDS011;69870;51.460;8.842;2023-05-14T04:48:06;21.40;;;11.48;;
80541;SDS011;69870;51.460;8.842;2023-05-14T04:50:33;16.17;;;11.23;;
80541;SDS011;69870;51.460;8.842;2023-05-14T04:52:59;24.48;;;11.70;;
80541;SDS011;69870;51.460;8.842;2023-05-14T04:55:27;21.83;;;12.25;;
80541;SDS011;69870;51.460;8.842;2023-05-14T04:57:54;23.30;;;11.95;;
80541;SDS011;69870;51.460;8.842;2023-05-14T05:00:20;15.45;;;11.23;;
80541;SDS011;69870;51.460;8.842;2023-05-14T05:02:47;17.58;;;12.10;;
80541;SDS011;69870;51.460;8.842;2023-05-14T05:05:15;19.98;;;11.48;;
80541;SDS011;69870;51.460;8.842;2023-05-14T05:07:41;16.75;;;11.40;;
80541;SDS011;69870;51.460;8.842;2023-05-14T05:10:08;19.75;;;12.77;;
80541;SDS011;69870;51.460;8.842;2023-05-14T05:12:35;23.23;;;11.38;;
80541;SDS011;69870;51.460;8.842;2023-05-14T05:15:01;14.95;;;10.70;;
80541;SDS011;69870;51.460;8.842;2023-05-14T05:17:28;18.75;;;11.23;;
80541;SDS011;69870;51.460;8.842;2023-05-14T05:19:55;16.23;;;10.77;;
80541;SDS011;69870;51.460;8.842;2023-05-14T05:22:23;18.58;;;11.88;;
80541;SDS011;69870;51.460;8.842;2023-05-14T05:24:49;15.45;;;11.43;;
80541;SDS011;69870;51.460;8.842;2023-05-14T05:27:16;14.85;;;10.45;;
80541;SDS011;69870;51.460;8.842;2023-05-14T05:29:43;19.00;;;11.63;;
80541;SDS011;69870;51.460;8.842;2023-05-14T05:32:10;18.77;;;11.30;;
80541;SDS011;69870;51.460;8.842;2023-05-14T05:34:37;18.60;;;11.45;;
80541;SDS011;69870;51.460;8.842;2023-05-14T05:37:04;16.77;;;10.75;;
80541;SDS011;69870;51.460;8.842;2023-05-14T05:39:32;14.18;;;9.43;;
80541;SDS011;69870;51.460;8.842;2023-05-14T05:41:59;16.10;;;9.35;;
80541;SDS011;69870;51.460;8.842;2023-05-14T05:44:26;26.50;;;15.20;;
80541;SDS011;69870;51.460;8.842;2023-05-14T05:46:53;19.67;;;10.35;;
80541;SDS011;69870;51.460;8.842;2023-05-14T05:49:21;17.15;;;11.75;;
80541;SDS011;69870;51.460;8.842;2023-05-14T05:51:47;14.60;;;10.48;;
80541;SDS011;69870;51.460;8.842;2023-05-14T05:54:14;17.00;;;10.35;;
80541;SDS011;69870;51.460;8.842;2023-05-14T05:56:42;19.83;;;10.45;;
80541;SDS011;69870;51.460;8.842;2023-05-14T05:59:09;13.35;;;9.60;;
80541;SDS011;69870;51.460;8.842;2023-05-14T06:01:35;23.02;;;10.32;;
80541;SDS011;69870;51.460;8.842;2023-05-14T06:04:02;20.10;;;11.20;;
80541;SDS011;69870;51.460;8.842;2023-05-14T06:06:30;13.25;;;10.00;;
80541;SDS011;69870;51.460;8.842;2023-05-14T06:08:57;13.82;;;9.80;;
80541;SDS011;69870;51.460;8.842;2023-05-14T06:11:23;20.08;;;10.52;;
80541;SDS011;69870;51.460;8.842;2023-05-14T06:13:52;14.93;;;9.95;;
80541;SDS011;69870;51.460;8.842;2023-05-14T06:16:19;14.15;;;9.52;;
80541;SDS011;69870;51.460;8.842;2023-05-14T06:18:45;16.05;;;8.48;;
80541;SDS011;69870;51.460;8.842;2023-05-14T06:21:12;14.38;;;10.05;;
80541;SDS011;69870;51.460;8.842;2023-05-14T06:23:38;19.70;;;8.85;;
80541;SDS011;69870;51.460;8.842;2023-05-14T06:26:05;17.88;;;9.70;;
80541;SDS011;69870;51.460;8.842;2023-05-14T06:28:32;16.70;;;9.23;;
80541;SDS011;69870;51.460;8.842;2023-05-14T06:31:00;22.10;;;9.05;;
80541;SDS011;69870;51.460;8.842;2023-05-14T06:33:26;11.90;;;9.27;;
80541;SDS011;69870;51.460;8.842;2023-05-14T06:35:55;13.10;;;9.13;;
80541;SDS011;69870;51.460;8.842;2023-05-14T06:38:22;11.55;;;9.18;;
80541;SDS011;69870;51.460;8.842;2023-05-14T06:40:49;13.45;;;9.25;;
80541;SDS011;69870;51.460;8.842;2023-05-14T06:43:15;18.13;;;9.20;;
80541;SDS011;69870;51.460;8.842;2023-05-14T06:45:42;13.85;;;9.30;;
80541;SDS011;69870;51.460;8.842;2023-05-14T06:48:10;13.32;;;9.43;;
80541;SDS011;69870;51.460;8.842;2023-05-14T06:50:37;15.35;;;9.55;;
80541;SDS011;69870;51.460;8.842;2023-05-14T06:53:03;15.25;;;8.50;;
80541;SDS011;69870;51.460;8.842;2023-05-14T06:55:30;12.93;;;9.77;;
80541;SDS011;69870;51.460;8.842;2023-05-14T06:57:56;18.92;;;8.98;;
80541;SDS011;69870;51.460;8.842;2023-05-14T07:00:23;10.98;;;8.18;;
80541;SDS011;69870;51.460;8.842;2023-05-14T07:02:50;13.38;;;8.25;;
80541;SDS011;69870;51.460;8.842;2023-05-14T07:05:18;13.23;;;8.40;;
80541;SDS011;69870;51.460;8.842;2023-05-14T07:07:44;13.30;;;7.70;;
80541;SDS011;69870;51.460;8.842;2023-05-14T07:10:11;8.88;;;7.97;;
80541;SDS011;69870;51.460;8.842;2023-05-14T07:12:38;16.48;;;7.95;;
80541;SDS011;69870;51.460;8.842;2023-05-14T07:15:05;10.43;;;7.47;;
80541;SDS011;69870;51.460;8.842;2023-05-14T07:17:32;10.30;;;7.75;;
80541;SDS011;69870;51.460;8.842;2023-05-14T07:19:59;10.65;;;7.90;;
80541;SDS011;69870;51.460;8.842;2023-05-14T07:22:27;15.18;;;7.70;;
80541;SDS011;69870;51.460;8.842;2023-05-14T07:24:53;12.48;;;7.50;;
80541;SDS011;69870;51.460;8.842;2023-05-14T07:27:20;9.95;;;7.50;;
80541;SDS011;69870;51.460;8.842;2023-05-14T07:29:48;9.57;;;7.28;;
80541;SDS011;69870;51.460;8.842;2023-05-14T07:32:15;12.18;;;7.47;;
80541;SDS011;69870;51.460;8.842;2023-05-14T07:34:41;12.13;;;7.38;;
80541;SDS011;69870;51.460;8.842;2023-05-14T07:37:08;8.27;;;5.95;;
80541;SDS011;69870;51.460;8.842;2023-05-14T07:39:36;10.88;;;7.00;;
80541;SDS011;69870;51.460;8.842;2023-05-14T07:42:03;7.70;;;6.60;;
80541;SDS011;69870;51.460;8.842;2023-05-14T07:44:30;7.45;;;6.18;;
80541;SDS011;69870;51.460;8.842;2023-05-14T07:46:56;8.82;;;5.82;;
80541;SDS011;69870;51.460;8.842;2023-05-14T07:49:23;16.48;;;6.65;;
80541;SDS011;69870;51.460;8.842;2023-05-14T07:51:49;6.40;;;5.57;;
80541;SDS011;69870;51.460;8.842;2023-05-14T07:54:16;7.10;;;5.93;;
80541;SDS011;69870;51.460;8.842;2023-05-14T07:56:44;7.55;;;5.28;;
80541;SDS011;69870;51.460;8.842;2023-05-14T07:59:10;9.63;;;5.65;;
80541;SDS011;69870;51.460;8.842;2023-05-14T08:01:37;6.97;;;4.82;;
80541;SDS011;69870;51.460;8.842;2023-05-14T08:04:04;6.30;;;4.88;;
80541;SDS011;69870;51.460;8.842;2023-05-14T08:06:30;9.50;;;4.75;;
80541;SDS011;69870;51.460;8.842;2023-05-14T08:08:57;5.72;;;4.65;;
80541;SDS011;69870;51.460;8.842;2023-05-14T08:11:24;5.97;;;4.55;;
80541;SDS011;69870;51.460;8.842;2023-05-14T08:13:52;7.25;;;4.50;;
80541;SDS011;69870;51.460;8.842;2023-05-14T08:16:18;5.22;;;4.03;;
80541;SDS011;69870;51.460;8.842;2023-05-14T08:18:45;4.47;;;3.65;;
80541;SDS011;69870;51.460;8.842;2023-05-14T08:21:11;4.03;;;2.97;;
80541;SDS011;69870;51.460;8.842;2023-05-14T08:23:38;4.07;;;3.67;;
80541;SDS011;69870;51.460;8.842;2023-05-14T08:26:05;5.82;;;4.05;;
80541;SDS011;69870;51.460;8.842;2023-05-14T08:28:31;5.82;;;4.40;;
80541;SDS011;69870;51.460;8.842;2023-05-14T08:30:59;3.70;;;3.30;;
80541;SDS011;69870;51.460;8.842;2023-05-14T08:33:26;4.95;;;3.30;;
80541;SDS011;69870;51.460;8.842;2023-05-14T08:35:52;6.45;;;3.58;;
80541;SDS011;69870;51.460;8.842;2023-05-14T08:38:20;4.43;;;3.55;;
80541;SDS011;69870;51.460;8.842;2023-05-14T08:40:47;11.23;;;4.82;;
80541;SDS011;69870;51.460;8.842;2023-05-14T08:43:18;5.70;;;3.50;;
80541;SDS011;69870;51.460;8.842;2023-05-14T08:45:49;4.38;;;3.50;;
80541;SDS011;69870;51.460;8.842;2023-05-14T08:48:20;8.02;;;4.05;;
80541;SDS011;69870;51.460;8.842;2023-05-14T08:50:48;4.85;;;3.80;;
80541;SDS011;69870;51.460;8.842;2023-05-14T08:53:15;4.68;;;3.38;;
80541;SDS011;69870;51.460;8.842;2023-05-14T08:55:42;5.47;;;3.47;;
80541;SDS011;69870;51.460;8.842;2023-05-14T08:58:10;6.60;;;3.67;;
80541;SDS011;69870;51.460;8.842;2023-05-14T09:00:37;5.15;;;4.18;;
80541;SDS011;69870;51.460;8.842;2023-05-14T09:03:03;6.75;;;3.55;;
80541;SDS011;69870;51.460;8.842;2023-05-14T09:05:33;5.05;;;3.40;;
80541;SDS011;69870;51.460;8.842;2023-05-14T09:08:00;5.15;;;3.38;;
80541;SDS011;69870;51.460;8.842;2023-05-14T09:10:26;7.45;;;3.60;;
80541;SDS011;69870;51.460;8.842;2023-05-14T09:12:53;3.85;;;2.72;;
80541;SDS011;69870;51.460;8.842;2023-05-14T09:15:19;4.88;;;3.38;;
80541;SDS011;69870;51.460;8.842;2023-05-14T09:17:46;3.92;;;3.03;;
80541;SDS011;69870;51.460;8.842;2023-05-14T09:20:12;3.22;;;2.80;;
80541;SDS011;69870;51.460;8.842;2023-05-14T09:22:41;6.93;;;3.03;;
80541;SDS011;69870;51.460;8.842;2023-05-14T09:25:08;4.00;;;2.78;;
80541;SDS011;69870;51.460;8.842;2023-05-14T09:27:36;3.13;;;2.38;;
80541;SDS011;69870;51.460;8.842;2023-05-14T09:30:04;6.75;;;2.60;;
80541;SDS011;69870;51.460;8.842;2023-05-14T09:32:35;2.90;;;2.60;;
80541;SDS011;69870;51.460;8.842;2023-05-14T09:35:10;3.40;;;2.70;;
80541;SDS011;69870;51.460;8.842;2023-05-14T09:37:40;7.57;;;2.67;;
80541;SDS011;69870;51.460;8.842;2023-05-14T09:40:08;3.67;;;2.30;;
80541;SDS011;69870;51.460;8.842;2023-05-14T09:42:36;3.05;;;2.28;;
80541;SDS011;69870;51.460;8.842;2023-05-14T09:45:03;3.08;;;2.28;;
80541;SDS011;69870;51.460;8.842;2023-05-14T09:47:30;2.55;;;2.35;;
80541;SDS011;69870;51.460;8.842;2023-05-14T09:49:57;3.88;;;2.10;;
80541;SDS011;69870;51.460;8.842;2023-05-14T09:52:24;4.60;;;2.85;;
80541;SDS011;69870;51.460;8.842;2023-05-14T09:54:52;4.60;;;2.05;;
80541;SDS011;69870;51.460;8.842;2023-05-14T09:57:19;3.15;;;2.60;;
80541;SDS011;69870;51.460;8.842;2023-05-14T09:59:46;8.00;;;2.50;;
80541;SDS011;69870;51.460;8.842;2023-05-14T10:02:15;5.07;;;2.78;;
80541;SDS011;69870;51.460;8.842;2023-05-14T10:04:47;4.22;;;2.38;;
80541;SDS011;69870;51.460;8.842;2023-05-14T10:07:16;5.57;;;2.50;;
80541;SDS011;69870;51.460;8.842;2023-05-14T10:09:49;3.92;;;2.70;;
80541;SDS011;69870;51.460;8.842;2023-05-14T10:12:20;8.35;;;2.78;;
80541;SDS011;69870;51.460;8.842;2023-05-14T10:14:48;6.00;;;2.67;;
80541;SDS011;69870;51.460;8.842;2023-05-14T10:17:18;4.07;;;2.58;;
80541;SDS011;69870;51.460;8.842;2023-05-14T10:19:49;2.78;;;2.40;;
80541;SDS011;69870;51.460;8.842;2023-05-14T10:22:21;6.57;;;2.30;;
80541;SDS011;69870;51.460;8.842;2023-05-14T10:24:49;5.10;;;3.10;;
80541;SDS011;69870;51.460;8.842;2023-05-14T10:27:19;4.00;;;2.75;;
80541;SDS011;69870;51.460;8.842;2023-05-14T10:29:49;3.75;;;2.65;;
80541;SDS011;69870;51.460;8.842;2023-05-14T10:32:19;3.95;;;2.58;;
80541;SDS011;69870;51.460;8.842;2023-05-14T10:34:47;5.95;;;2.80;;
80541;SDS011;69870;51.460;8.842;2023-05-14T10:37:14;3.97;;;2.75;;
80541;SDS011;69870;51.460;8.842;2023-05-14T10:39:45;3.13;;;2.58;;
80541;SDS011;69870;51.460;8.842;2023-05-14T10:42:15;3.22;;;2.30;;
80541;SDS011;69870;51.460;8.842;2023-05-14T10:44:48;4.93;;;2.53;;
80541;SDS011;69870;51.460;8.842;2023-05-14T10:47:17;6.65;;;3.10;;
80541;SDS011;69870;51.460;8.842;2023-05-14T10:49:44;3.35;;;2.90;;
80541;SDS011;69870;51.460;8.842;2023-05-14T10:52:15;4.13;;;3.17;;
80541;SDS011;69870;51.460;8.842;2023-05-14T10:54:49;4.20;;;2.97;;
80541;SDS011;69870;51.460;8.842;2023-05-14T10:57:19;3.60;;;3.00;;
80541;SDS011;69870;51.460;8.842;2023-05-14T10:59:47;6.28;;;4.18;;
80541;SDS011;69870;51.460;8.842;2023-05-14T11:02:19;6.30;;;3.35;;
80541;SDS011;69870;51.460;8.842;2023-05-14T11:04:51;4.65;;;2.72;;
80541;SDS011;69870;51.460;8.842;2023-05-14T11:07:21;5.18;;;2.95;;
80541;SDS011;69870;51.460;8.842;2023-05-14T11:09:49;4.57;;;3.33;;
80541;SDS011;69870;51.460;8.842;2023-05-14T11:12:16;7.20;;;3.72;;
80541;SDS011;69870;51.460;8.842;2023-05-14T11:14:46;3.85;;;2.78;;
80541;SDS011;69870;51.460;8.842;2023-05-14T11:17:13;5.78;;;3.55;;
80541;SDS011;69870;51.460;8.842;2023-05-14T11:19:41;4.32;;;3.00;;
80541;SDS011;69870;51.460;8.842;2023-05-14T11:22:08;3.35;;;2.92;;
80541;SDS011;69870;51.460;8.842;2023-05-14T11:24:37;4.72;;;3.55;;
80541;SDS011;69870;51.460;8.842;2023-05-14T11:27:05;4.65;;;3.53;;
80541;SDS011;69870;51.460;8.842;2023-05-14T11:29:34;3.30;;;2.95;;
80541;SDS011;69870;51.460;8.842;2023-05-14T11:32:01;4.43;;;2.80;;
80541;SDS011;69870;51.460;8.842;2023-05-14T11:34:30;5.93;;;3.47;;
80541;SDS011;69870;51.460;8.842;2023-05-14T11:36:57;3.72;;;3.42;;
80541;SDS011;69870;51.460;8.842;2023-05-14T11:39:23;6.55;;;3.08;;
80541;SDS011;69870;51.460;8.842;2023-05-14T11:41:50;5.22;;;3.10;;
80541;SDS011;69870;51.460;8.842;2023-05-14T11:44:16;3.10;;;2.80;;
80541;SDS011;69870;51.460;8.842;2023-05-14T11:46:53;4.53;;;2.70;;
80541;SDS011;69870;51.460;8.842;2023-05-14T11:49:21;8.27;;;3.33;;
80541;SDS011;69870;51.460;8.842;2023-05-14T11:51:48;5.22;;;2.80;;
80541;SDS011;69870;51.460;8.842;2023-05-14T11:54:14;4.50;;;2.83;;
80541;SDS011;69870;51.460;8.842;2023-05-14T11:56:41;4.13;;;2.42;;
80541;SDS011;69870;51.460;8.842;2023-05-14T11:59:09;6.30;;;2.67;;
80541;SDS011;69870;51.460;8.842;2023-05-14T12:01:36;19.48;;;12.30;;
80541;SDS011;69870;51.460;8.842;2023-05-14T12:04:05;4.38;;;3.17;;
80541;SDS011;69870;51.460;8.842;2023-05-14T12:06:31;6.57;;;3.40;;
80541;SDS011;69870;51.460;8.842;2023-05-14T12:08:58;3.58;;;2.72;;
80541;SDS011;69870;51.460;8.842;2023-05-14T12:11:29;4.00;;;3.10;;
80541;SDS011;69870;51.460;8.842;2023-05-14T12:13:56;8.85;;;3.33;;
80541;SDS011;69870;51.460;8.842;2023-05-14T12:16:28;4.13;;;2.70;;
80541;SDS011;69870;51.460;8.842;2023-05-14T12:18:58;3.97;;;2.42;;
80541;SDS011;69870;51.460;8.842;2023-05-14T12:21:27;3.72;;;2.53;;
80541;SDS011;69870;51.460;8.842;2023-05-14T12:23:56;3.15;;;2.30;;
80541;SDS011;69870;51.460;8.842;2023-05-14T12:26:24;2.97;;;2.47;;
80541;SDS011;69870;51.460;8.842;2023-05-14T12:28:55;3.20;;;2.70;;
80541;SDS011;69870;51.460;8.842;2023-05-14T12:31:26;3.30;;;2.50;;
80541;SDS011;69870;51.460;8.842;2023-05-14T12:33:54;4.90;;;2.40;;
80541;SDS011;69870;51.460;8.842;2023-05-14T12:36:20;4.63;;;2.33;;
80541;SDS011;69870;51.460;8.842;2023-05-14T12:38:48;3.83;;;2.78;;
80541;SDS011;69870;51.460;8.842;2023-05-14T12:41:15;7.20;;;2.88;;
80541;SDS011;69870;51.460;8.842;2023-05-14T12:43:42;4.35;;;2.63;;
80541;SDS011;69870;51.460;8.842;2023-05-14T12:46:09;4.95;;;2.28;;
80541;SDS011;69870;51.460;8.842;2023-05-14T12:48:36;5.60;;;3.17;;
80541;SDS011;69870;51.460;8.842;2023-05-14T12:51:03;2.70;;;2.20;;
80541;SDS011;69870;51.460;8.842;2023-05-14T12:53:30;2.97;;;2.20;;
80541;SDS011;69870;51.460;8.842;2023-05-14T12:55:58;3.63;;;2.45;;
80541;SDS011;69870;51.460;8.842;2023-05-14T12:58:25;4.13;;;2.30;;
80541;SDS011;69870;51.460;8.842;2023-05-14T13:00:51;3.40;;;2.20;;
80541;SDS011;69870;51.460;8.842;2023-05-14T13:03:18;7.85;;;4.45;;
80541;SDS011;69870;51.460;8.842;2023-05-14T13:05:45;2.80;;;2.50;;
80541;SDS011;69870;51.460;8.842;2023-05-14T13:08:11;4.70;;;2.60;;
80541;SDS011;69870;51.460;8.842;2023-05-14T13:10:41;3.15;;;2.53;;
80541;SDS011;69870;51.460;8.842;2023-05-14T13:13:09;7.65;;;2.58;;
80541;SDS011;69870;51.460;8.842;2023-05-14T13:15:37;5.10;;;2.72;;
80541;SDS011;69870;51.460;8.842;2023-05-14T13:18:03;5.22;;;2.10;;
80541;SDS011;69870;51.460;8.842;2023-05-14T13:20:30;2.92;;;2.63;;
80541;SDS011;69870;51.460;8.842;2023-05-14T13:22:56;2.28;;;2.08;;
80541;SDS011;69870;51.460;8.842;2023-05-14T13:25:23;5.20;;;2.60;;
80541;SDS011;69870;51.460;8.842;2023-05-14T13:27:50;2.75;;;2.40;;
80541;SDS011;69870;51.460;8.842;2023-05-14T13:30:18;5.20;;;2.38;;
80541;SDS011;69870;51.460;8.842;2023-05-14T13:32:45;4.32;;;2.20;;
80541;SDS011;69870;51.460;8.842;2023-05-14T13:35:12;3.35;;;2.50;;
80541;SDS011;69870;51.460;8.842;2023-05-14T13:37:38;7.35;;;3.90;;
80541;SDS011;69870;51.460;8.842;2023-05-14T13:40:05;3.47;;;2.42;;
80541;SDS011;69870;51.460;8.842;2023-05-14T13:42:33;3.53;;;1.85;;
80541;SDS011;69870;51.460;8.842;2023-05-14T13:45:00;2.63;;;1.83;;
80541;SDS011;69870;51.460;8.842;2023-05-14T13:47:29;2.95;;;1.95;;
80541;SDS011;69870;51.460;8.842;2023-05-14T13:49:55;4.63;;;2.17;;
80541;SDS011;69870;51.460;8.842;2023-05-14T13:52:22;2.40;;;2.10;;
80541;SDS011;69870;51.460;8.842;2023-05-14T13:54:49;2.70;;;2.15;;
80541;SDS011;69870;51.460;8.842;2023-05-14T13:57:15;3.75;;;1.90;;
80541;SDS011;69870;51.460;8.842;2023-05-14T13:59:42;4.47;;;2.67;;
80541;SDS011;69870;51.460;8.842;2023-05-14T14:02:08;3.72;;;2.50;;
80541;SDS011;69870;51.460;8.842;2023-05-14T14:04:36;3.47;;;2.90;;
80541;SDS011;69870;51.460;8.842;2023-05-14T14:07:03;4.93;;;2.60;;
80541;SDS011;69870;51.460;8.842;2023-05-14T14:09:30;5.90;;;2.70;;
80541;SDS011;69870;51.460;8.842;2023-05-14T14:11:59;2.95;;;2.38;;
80541;SDS011;69870;51.460;8.842;2023-05-14T14:14:26;4.13;;;2.80;;
80541;SDS011;69870;51.460;8.842;2023-05-14T14:16:52;7.07;;;2.80;;
80541;SDS011;69870;51.460;8.842;2023-05-14T14:19:19;12.23;;;3.67;;
80541;SDS011;69870;51.460;8.842;2023-05-14T14:21:47;3.13;;;2.83;;
80541;SDS011;69870;51.460;8.842;2023-05-14T14:24:14;10.68;;;2.83;;
80541;SDS011;69870;51.460;8.842;2023-05-14T14:26:40;4.07;;;3.53;;
80541;SDS011;69870;51.460;8.842;2023-05-14T14:29:07;5.35;;;3.20;;
80541;SDS011;69870;51.460;8.842;2023-05-14T14:31:34;4.88;;;3.72;;
80541;SDS011;69870;51.460;8.842;2023-05-14T14:34:01;10.90;;;3.85;;
80541;SDS011;69870;51.460;8.842;2023-05-14T14:36:27;4.93;;;4.07;;